Time;durP1;ratioP1;P1;durP2;ratioP2;P2;SDS_P1;SDS_P2;PMS_P1;PMS_P2;Temp;Humidity;BMP_temperature;BMP_pressure;BME280_temperature;BME280_humidity;BME280_pressure;Samples;Min_cycle;Max_cycle;Signal;HPM_P1;HPM_P2
2022/05/07 00:03:07;;;;;;;20.70;18.83;;;10.40;1.00;;;;;;5068007;28;20445;-62
2022/05/07 00:05:34;;;;;;;22.10;20.00;;;10.40;1.00;;;;;;5079928;28;20518;-61
2022/05/07 00:08:05;;;;;;;20.90;19.00;;;10.40;1.00;;;;;;5080135;28;20432;-62
2022/05/07 00:10:32;;;;;;;21.27;19.27;;;10.30;1.00;;;;;;5079630;28;20518;-62
2022/05/07 00:12:59;;;;;;;26.23;19.10;;;10.30;1.00;;;;;;5078775;28;20488;-62
2022/05/07 00:15:29;;;;;;;22.83;20.60;;;10.30;1.00;;;;;;5079592;28;20518;-61
2022/05/07 00:18:05;;;;;;;22.57;20.17;;;10.30;1.00;;;;;;5079418;28;20489;-62
2022/05/07 00:20:38;;;;;;;22.83;20.40;;;10.20;1.00;;;;;;5079239;28;20461;-62
2022/05/07 00:23:08;;;;;;;24.93;22.33;;;10.20;1.00;;;;;;5078753;28;20465;-61
2022/05/07 00:25:37;;;;;;;22.80;20.70;;;10.10;1.00;;;;;;5079359;28;20534;-62
2022/05/07 00:28:04;;;;;;;24.60;22.00;;;10.10;1.00;;;;;;5079783;28;20568;-62
2022/05/07 00:30:35;;;;;;;23.00;20.63;;;10.10;1.00;;;;;;5079188;28;20458;-62
2022/05/07 00:33:04;;;;;;;24.50;21.93;;;10.10;1.00;;;;;;5079008;28;20588;-62
2022/05/07 00:35:36;;;;;;;22.13;19.97;;;10.10;1.00;;;;;;5079606;28;20556;-62
2022/05/07 00:38:09;;;;;;;22.63;20.23;;;10.10;1.00;;;;;;5079251;28;20467;-62
2022/05/07 00:40:39;;;;;;;23.70;21.47;;;10.00;1.00;;;;;;5078818;28;20461;-62
2022/05/07 00:43:12;;;;;;;23.97;21.40;;;10.00;1.00;;;;;;5079075;28;20449;-62
2022/05/07 00:45:41;;;;;;;24.07;21.63;;;9.90;1.00;;;;;;5079798;28;20826;-62
2022/05/07 00:48:12;;;;;;;21.53;19.53;;;10.00;1.00;;;;;;5079196;28;20765;-62
2022/05/07 00:53:36;;;;;;;22.73;20.67;;;9.90;1.00;;;;;;5078096;28;20488;-62
2022/05/07 00:56:03;;;;;;;23.80;20.70;;;9.80;1.00;;;;;;5078223;28;20465;-62
2022/05/07 00:58:32;;;;;;;22.93;20.53;;;9.80;1.00;;;;;;5078068;28;20928;-62
2022/05/07 01:01:01;;;;;;;21.80;19.70;;;9.80;1.00;;;;;;5078968;28;20472;-62
2022/05/07 01:03:35;;;;;;;23.20;20.90;;;9.70;1.00;;;;;;5079303;28;20496;-62
2022/05/07 01:06:05;;;;;;;23.43;21.20;;;9.70;1.00;;;;;;5078860;28;20468;-62
2022/05/07 01:08:35;;;;;;;23.63;21.13;;;9.60;1.00;;;;;;5077978;28;20461;-61
2022/05/07 01:11:03;;;;;;;23.67;21.27;;;9.60;1.00;;;;;;5078684;28;20465;-62
2022/05/07 01:13:31;;;;;;;23.83;21.33;;;9.60;1.00;;;;;;5078954;28;20521;-62
2022/05/07 01:16:00;;;;;;;23.93;21.33;;;9.60;1.00;;;;;;5077348;28;20469;-62
2022/05/07 01:18:27;;;;;;;22.83;20.70;;;9.50;1.00;;;;;;5078363;28;20821;-62
2022/05/07 01:20:59;;;;;;;23.47;20.97;;;9.50;1.00;;;;;;5078562;28;20522;-61
2022/05/07 01:23:28;;;;;;;24.60;22.23;;;9.50;1.00;;;;;;5077405;28;20555;-61
2022/05/07 01:26:01;;;;;;;25.00;22.40;;;9.40;1.00;;;;;;5076961;28;20497;-62
2022/05/07 01:28:30;;;;;;;24.77;22.47;;;9.40;1.00;;;;;;5079056;28;20453;-61
2022/05/07 01:30:58;;;;;;;24.37;21.90;;;9.40;1.00;;;;;;5077878;28;20461;-61
2022/05/07 01:33:25;;;;;;;26.10;23.67;;;9.40;1.00;;;;;;5078668;28;20548;-62
2022/05/07 01:35:52;;;;;;;24.30;21.80;;;9.30;1.00;;;;;;5077309;28;20886;-61
2022/05/07 01:38:20;;;;;;;24.20;21.87;;;9.30;1.00;;;;;;5078222;28;20777;-62
2022/05/07 01:40:49;;;;;;;23.20;20.77;;;9.30;1.00;;;;;;5076558;28;20465;-61
2022/05/07 01:43:16;;;;;;;24.07;21.67;;;9.30;1.00;;;;;;5078194;28;20461;-62
2022/05/07 01:45:43;;;;;;;24.97;20.90;;;9.20;1.00;;;;;;5077702;28;20556;-62
2022/05/07 01:48:13;;;;;;;24.60;22.30;;;9.20;1.00;;;;;;5078543;28;20465;-62
2022/05/07 01:50:41;;;;;;;23.90;20.60;;;9.10;1.00;;;;;;5078027;28;20548;-61
2022/05/07 01:53:09;;;;;;;24.60;22.20;;;9.10;1.00;;;;;;5078012;28;20496;-62
2022/05/07 01:55:40;;;;;;;24.37;21.87;;;9.10;1.00;;;;;;5078075;28;20488;-62
2022/05/07 01:58:08;;;;;;;24.60;22.20;;;9.10;1.00;;;;;;5076853;28;20465;-62
2022/05/07 02:00:36;;;;;;;25.67;22.00;;;9.10;1.00;;;;;;5077715;28;20502;-62
2022/05/07 02:03:03;;;;;;;26.53;23.30;;;9.10;1.00;;;;;;5077502;28;20458;-62
2022/05/07 02:05:33;;;;;;;24.90;22.37;;;9.00;1.00;;;;;;5075608;28;20522;-62
2022/05/07 02:08:00;;;;;;;29.03;25.13;;;9.10;1.00;;;;;;5077397;28;20843;-61
2022/05/07 02:10:27;;;;;;;29.37;26.37;;;9.10;1.00;;;;;;5077312;28;20514;-61
2022/05/07 02:12:55;;;;;;;27.87;25.07;;;9.10;1.00;;;;;;5077219;28;20501;-61
2022/05/07 02:15:24;;;;;;;28.10;24.43;;;9.10;1.00;;;;;;5076853;28;20932;-62
2022/05/07 02:17:51;;;;;;;30.73;26.83;;;9.00;1.00;;;;;;5077085;28;20486;-61
2022/05/07 02:20:18;;;;;;;30.00;26.33;;;9.00;1.00;;;;;;5076688;28;20465;-61
2022/05/07 02:22:48;;;;;;;28.00;24.97;;;8.90;1.00;;;;;;5077376;28;20534;-61
2022/05/07 02:25:23;;;;;;;31.50;28.10;;;8.90;1.00;;;;;;5077290;28;20564;-61
2022/05/07 02:27:52;;;;;;;29.47;26.57;;;8.90;1.00;;;;;;5077311;28;20893;-61
2022/05/07 02:30:24;;;;;;;28.70;25.40;;;8.90;1.00;;;;;;5077848;28;20760;-62
2022/05/07 02:32:51;;;;;;;28.83;26.00;;;8.90;1.00;;;;;;5077062;28;20485;-62
2022/05/07 02:35:23;;;;;;;29.10;25.97;;;8.80;1.00;;;;;;5076957;28;20514;-62
2022/05/07 02:37:54;;;;;;;31.87;27.20;;;8.70;1.00;;;;;;5076648;28;20461;-62
2022/05/07 02:40:21;;;;;;;28.03;25.33;;;8.70;1.00;;;;;;5077414;28;20475;-61
2022/05/07 02:42:47;;;;;;;27.10;24.30;;;8.70;1.00;;;;;;5076751;28;20733;-62
2022/05/07 02:45:16;;;;;;;28.57;25.73;;;8.70;1.00;;;;;;5077499;28;20457;-62
2022/05/07 02:47:50;;;;;;;28.30;24.97;;;8.60;1.00;;;;;;5076914;28;20873;-62
2022/05/07 02:50:18;;;;;;;27.63;24.93;;;8.70;1.00;;;;;;5076584;28;20495;-61
2022/05/07 02:52:45;;;;;;;26.57;23.77;;;8.60;1.00;;;;;;5076571;28;20481;-62
2022/05/07 02:55:19;;;;;;;28.67;25.07;;;8.60;1.00;;;;;;5076935;28;20812;-62
2022/05/07 02:57:46;;;;;;;29.23;26.13;;;8.60;1.00;;;;;;5077468;28;20765;-62
2022/05/07 03:00:15;;;;;;;26.63;23.20;;;8.60;1.00;;;;;;5076505;28;20905;-62
2022/05/07 03:02:42;;;;;;;26.53;23.83;;;8.50;1.00;;;;;;5076788;28;20466;-62
2022/05/07 03:05:18;;;;;;;28.30;25.50;;;8.50;1.00;;;;;;5076949;28;20461;-62
2022/05/07 03:07:49;;;;;;;26.53;23.73;;;8.50;1.00;;;;;;5077131;28;20754;-61
2022/05/07 03:10:25;;;;;;;27.97;24.27;;;8.50;1.00;;;;;;5076539;28;20930;-62
2022/05/07 03:12:52;;;;;;;27.70;24.97;;;8.50;1.00;;;;;;5076545;28;20535;-62
2022/05/07 03:15:24;;;;;;;29.83;26.40;;;8.50;1.00;;;;;;5076692;28;20960;-61
2022/05/07 03:17:56;;;;;;;27.30;24.43;;;8.50;1.00;;;;;;5076287;28;20495;-61
2022/05/07 03:20:27;;;;;;;28.00;25.10;;;8.40;1.00;;;;;;5075737;28;20461;-61
2022/05/07 03:22:54;;;;;;;26.90;24.20;;;8.40;1.00;;;;;;5076902;28;20512;-61
2022/05/07 03:25:25;;;;;;;27.13;24.40;;;8.30;1.00;;;;;;5076285;28;20462;-61
2022/05/07 03:27:53;;;;;;;27.33;24.63;;;8.30;1.00;;;;;;5077040;28;20464;-62
2022/05/07 03:30:23;;;;;;;29.47;26.43;;;8.40;1.00;;;;;;5076689;28;20746;-62
2022/05/07 03:32:52;;;;;;;28.90;25.97;;;8.40;1.00;;;;;;5079283;28;20499;-62
2022/05/07 03:35:21;;;;;;;29.80;26.60;;;8.40;1.00;;;;;;5079471;28;20510;-62
2022/05/07 03:37:49;;;;;;;28.53;25.63;;;8.40;1.00;;;;;;5080655;28;20479;-62
2022/05/07 03:40:21;;;;;;;29.80;25.70;;;8.40;1.00;;;;;;5080237;28;20457;-62
2022/05/07 03:42:51;;;;;;;28.27;25.27;;;8.30;1.00;;;;;;5079975;28;20893;-61
2022/05/07 03:45:18;;;;;;;27.70;24.87;;;8.30;1.00;;;;;;5080338;28;20803;-62
2022/05/07 03:47:48;;;;;;;28.50;25.60;;;8.30;1.00;;;;;;5080244;28;20467;-62
2022/05/07 03:50:24;;;;;;;27.83;25.00;;;8.30;1.00;;;;;;5080548;28;20464;-62
2022/05/07 03:55:41;;;;;;;29.80;25.97;;;8.30;1.00;;;;;;5079236;28;20776;-62
2022/05/07 03:58:15;;;;;;;31.53;26.30;;;8.30;1.00;;;;;;5079475;28;20472;-61
2022/05/07 04:00:45;;;;;;;27.17;24.27;;;8.40;1.00;;;;;;5080056;28;20885;-62
2022/05/07 04:03:12;;;;;;;27.40;24.67;;;8.40;1.00;;;;;;5078995;28;20457;-62
2022/05/07 04:05:41;;;;;;;29.73;26.63;;;8.30;1.00;;;;;;5079869;28;20878;-61
2022/05/07 04:08:19;;;;;;;29.73;26.13;;;8.30;1.00;;;;;;5060359;28;20564;-61
2022/05/07 04:10:48;;;;;;;30.63;27.13;;;8.30;1.00;;;;;;5060207;28;20807;-61
2022/05/07 04:13:17;;;;;;;30.10;26.97;;;8.30;1.00;;;;;;5072422;28;20553;-62
2022/05/07 04:15:48;;;;;;;28.73;25.23;;;8.30;1.00;;;;;;5079702;28;20457;-61
2022/05/07 04:18:16;;;;;;;30.60;27.40;;;8.30;5.40;;;;;;5079200;28;20493;-62
2022/05/07 04:20:43;;;;;;;28.77;25.87;;;8.30;10.90;;;;;;5079183;28;20469;-62
2022/05/07 04:23:12;;;;;;;30.93;27.63;;;8.40;20.00;;;;;;5079054;28;20770;-62
2022/05/07 04:25:40;;;;;;;28.90;25.93;;;8.40;18.00;;;;;;5079867;28;20468;-62
2022/05/07 04:28:08;;;;;;;27.10;24.27;;;8.40;2.10;;;;;;5079722;28;20519;-62
2022/05/07 04:30:38;;;;;;;30.10;26.50;;;8.50;1.00;;;;;;5078762;28;20468;-62
2022/05/07 04:33:05;;;;;;;29.00;25.93;;;8.60;1.00;;;;;;5077930;28;20468;-61
2022/05/07 04:35:37;;;;;;;28.40;25.40;;;8.60;1.00;;;;;;5079511;28;20556;-61
2022/05/07 04:38:04;;;;;;;26.07;23.47;;;8.60;1.00;;;;;;5079470;28;20457;-62
2022/05/07 04:40:34;;;;;;;27.70;24.90;;;8.60;1.00;;;;;;5079025;28;20511;-62
2022/05/07 04:43:05;;;;;;;28.33;25.30;;;8.70;1.00;;;;;;5078261;28;20461;-62
2022/05/07 04:45:38;;;;;;;28.23;25.23;;;8.70;1.00;;;;;;5078913;28;20461;-62
2022/05/07 04:48:06;;;;;;;27.47;24.43;;;8.70;1.00;;;;;;5074378;28;20457;-62
2022/05/07 04:50:32;;;;;;;27.40;24.63;;;8.80;1.00;;;;;;5079094;28;20531;-62
2022/05/07 04:53:06;;;;;;;29.30;26.23;;;8.80;1.00;;;;;;5079083;28;20457;-62
2022/05/07 04:55:34;;;;;;;28.47;25.53;;;8.90;1.00;;;;;;5078318;28;20515;-62
2022/05/07 04:58:02;;;;;;;29.53;25.87;;;9.00;1.00;;;;;;5079116;28;20522;-61
2022/05/07 05:00:35;;;;;;;28.63;25.83;;;9.10;1.00;;;;;;5079334;28;20826;-62
2022/05/07 05:03:02;;;;;;;28.17;25.07;;;9.20;1.00;;;;;;5079336;28;20873;-61
2022/05/07 05:05:30;;;;;;;26.60;23.57;;;9.20;1.00;;;;;;5077926;28;20546;-62
2022/05/07 05:07:57;;;;;;;28.07;25.07;;;9.20;1.00;;;;;;5079116;28;20565;-62
2022/05/07 05:10:26;;;;;;;27.77;25.00;;;9.20;1.00;;;;;;5078438;28;20501;-62
2022/05/07 05:12:54;;;;;;;28.23;25.27;;;9.30;1.00;;;;;;5077361;28;20473;-62
2022/05/07 05:15:21;;;;;;;27.47;24.57;;;9.40;1.00;;;;;;5076745;28;20942;-62
2022/05/07 05:17:51;;;;;;;27.73;25.00;;;9.50;1.00;;;;;;5077576;28;20864;-62
2022/05/07 05:20:18;;;;;;;28.27;25.37;;;9.60;1.00;;;;;;5076833;28;20461;-61
2022/05/07 05:22:50;;;;;;;27.80;24.80;;;9.60;1.00;;;;;;5077846;28;20470;-62
2022/05/07 05:25:20;;;;;;;28.93;25.80;;;9.70;1.00;;;;;;5076638;28;20571;-62
2022/05/07 05:27:59;;;;;;;28.10;25.10;;;9.70;1.00;;;;;;5077412;28;20482;-62
2022/05/07 05:30:31;;;;;;;26.80;24.10;;;9.70;1.00;;;;;;5077557;28;21126;-62
2022/05/07 05:33:03;;;;;;;28.10;25.10;;;9.90;1.00;;;;;;5077707;28;20523;-62
2022/05/07 05:35:30;;;;;;;27.63;24.93;;;10.00;1.00;;;;;;5076371;28;20546;-62
2022/05/07 05:37:57;;;;;;;27.03;24.33;;;10.20;1.00;;;;;;5077053;28;20557;-61
2022/05/07 05:40:24;;;;;;;27.73;25.10;;;10.30;1.00;;;;;;5076462;28;20549;-62
2022/05/07 05:42:53;;;;;;;32.13;26.80;;;10.40;1.00;;;;;;5077567;28;20764;-60
2022/05/07 05:45:23;;;;;;;29.30;26.17;;;10.50;1.00;;;;;;5077749;28;20586;-59
2022/05/07 05:47:51;;;;;;;28.10;25.30;;;10.70;1.00;;;;;;5077484;28;20554;-60
2022/05/07 05:50:20;;;;;;;26.90;24.00;;;10.80;1.00;;;;;;5077107;28;20454;-60
2022/05/07 05:52:47;;;;;;;26.50;23.80;;;11.00;1.00;;;;;;5077170;28;20894;-60
2022/05/07 05:55:18;;;;;;;28.00;24.90;;;11.10;1.00;;;;;;5077535;28;20753;-59
2022/05/07 05:57:45;;;;;;;29.10;26.17;;;11.30;1.00;;;;;;5077503;28;20469;-59
2022/05/07 06:00:16;;;;;;;27.20;24.57;;;11.40;1.00;;;;;;5077443;28;20465;-60
2022/05/07 06:02:48;;;;;;;26.83;24.00;;;11.60;1.00;;;;;;5077182;28;20465;-59
2022/05/07 06:05:17;;;;;;;26.93;24.33;;;11.70;1.00;;;;;;5077322;28;20531;-59
2022/05/07 06:07:44;;;;;;;27.57;24.77;;;11.90;1.00;;;;;;5077875;28;20794;-59
2022/05/07 06:10:16;;;;;;;28.00;25.10;;;12.00;1.00;;;;;;5077808;28;20518;-59
2022/05/07 06:12:46;;;;;;;29.03;26.00;;;12.30;1.00;;;;;;5077600;28;20564;-60
2022/05/07 06:15:17;;;;;;;28.50;25.70;;;12.50;1.00;;;;;;5076858;28;20489;-59
2022/05/07 06:17:44;;;;;;;26.10;23.60;;;12.70;1.00;;;;;;5077077;28;20485;-60
2022/05/07 06:20:14;;;;;;;27.27;24.47;;;12.80;1.00;;;;;;5076787;28;20515;-59
2022/05/07 06:22:42;;;;;;;26.60;23.87;;;13.00;1.00;;;;;;5076899;28;20542;-60
2022/05/07 06:28:01;;;;;;;26.80;24.40;;;13.40;99.90;;;;;;5075782;28;20436;-61
2022/05/07 06:30:30;;;;;;;27.57;24.60;;;13.60;99.90;;;;;;5077456;28;20484;-61
2022/05/07 06:33:09;;;;;;;27.47;24.77;;;13.70;99.90;;;;;;5076011;28;20695;-61
2022/05/07 06:35:36;;;;;;;27.33;24.57;;;13.90;99.90;;;;;;5077346;28;20499;-61
2022/05/07 06:38:09;;;;;;;26.27;23.47;;;13.90;99.90;;;;;;5077560;28;20462;-61
2022/05/07 06:40:41;;;;;;;26.00;23.50;;;14.10;99.90;;;;;;5076257;28;20465;-61
2022/05/07 06:43:11;;;;;;;25.90;23.30;;;14.50;99.90;;;;;;5077258;28;20802;-61
2022/05/07 06:45:41;;;;;;;26.17;23.47;;;14.60;99.90;;;;;;5077525;28;20507;-61
2022/05/07 06:48:13;;;;;;;29.17;26.27;;;14.70;99.90;;;;;;5077320;28;20467;-62
2022/05/07 06:50:40;;;;;;;24.47;22.10;;;14.70;99.90;;;;;;5076919;28;20487;-62
2022/05/07 06:53:15;;;;;;;25.17;22.77;;;15.20;99.90;;;;;;5076670;28;20466;-61
2022/05/07 06:58:29;;;;;;;27.10;24.50;;;15.90;99.90;;;;;;5076568;28;20881;-61
2022/05/07 07:01:01;;;;;;;27.80;25.03;;;16.10;99.90;;;;;;5077301;28;20485;-61
2022/05/07 07:03:30;;;;;;;27.17;24.60;;;16.60;99.90;;;;;;5077269;28;20453;-62
2022/05/07 07:06:00;;;;;;;26.07;23.53;;;16.90;99.90;;;;;;5077916;28;20460;-61
2022/05/07 07:08:29;;;;;;;27.13;24.63;;;17.10;99.90;;;;;;5082937;28;20461;-62
2022/05/07 07:10:56;;;;;;;27.60;24.80;;;17.00;99.90;;;;;;5082926;28;20575;-61
2022/05/07 07:13:25;;;;;;;27.60;24.70;;;17.10;99.90;;;;;;5083795;28;20460;-61
2022/05/07 07:15:52;;;;;;;29.00;26.03;;;17.30;99.90;;;;;;5083455;28;20493;-61
2022/05/07 07:18:19;;;;;;;28.57;25.93;;;17.50;99.90;;;;;;5082877;28;20456;-61
2022/05/07 07:20:58;;;;;;;28.77;26.03;;;17.50;99.90;;;;;;5079949;28;20449;-61
2022/05/07 07:23:27;;;;;;;31.33;26.90;;;17.70;99.90;;;;;;5083344;28;20768;-61
2022/05/07 07:25:56;;;;;;;27.80;25.10;;;17.60;99.90;;;;;;5082785;28;20456;-62
2022/05/07 07:28:24;;;;;;;29.70;26.90;;;17.60;99.90;;;;;;5082856;28;20449;-62
2022/05/07 07:30:51;;;;;;;30.83;27.80;;;17.90;99.90;;;;;;5082237;28;20489;-62
2022/05/07 07:33:18;;;;;;;30.80;27.53;;;18.00;99.90;;;;;;5082100;28;20446;-62
2022/05/07 07:35:47;;;;;;;30.00;27.10;;;18.60;99.90;;;;;;5080546;28;20633;-62
2022/05/07 07:38:22;;;;;;;30.67;27.67;;;18.90;99.90;;;;;;5078924;28;20839;-62
2022/05/07 07:40:51;;;;;;;29.70;26.00;;;19.10;99.90;;;;;;5082848;28;20467;-62
2022/05/07 07:43:20;;;;;;;29.10;26.27;;;19.30;99.90;;;;;;5077657;28;20528;-61
2022/05/07 07:48:33;;;;;;;29.90;27.10;;;19.40;99.90;;;;;;5061683;28;20747;-62
2022/05/07 07:51:03;;;;;;;29.40;26.27;;;19.60;99.90;;;;;;5062648;28;20461;-62
2022/05/07 07:53:30;;;;;;;29.90;26.90;;;19.80;99.90;;;;;;5062395;28;20559;-62
2022/05/07 07:56:00;;;;;;;30.60;27.17;;;20.30;99.90;;;;;;5061935;28;20544;-62
2022/05/07 07:58:29;;;;;;;28.80;25.80;;;20.50;99.90;;;;;;5062249;28;20552;-62
2022/05/07 08:00:59;;;;;;;27.80;25.10;;;20.80;99.90;;;;;;5062125;28;20956;-62
2022/05/07 08:03:29;;;;;;;29.70;26.70;;;21.20;99.90;;;;;;5063321;28;20453;-62
2022/05/07 08:05:59;;;;;;;26.33;23.83;;;21.50;99.90;;;;;;5063403;28;20461;-62
2022/05/07 08:13:56;;;;;;;27.00;24.33;;;22.00;99.90;;;;;;5062702;28;20437;-62
2022/05/07 08:16:24;;;;;;;26.97;24.47;;;22.20;99.90;;;;;;5062368;28;20555;-60
2022/05/07 08:18:51;;;;;;;28.43;25.70;;;22.40;99.90;;;;;;5060168;28;20515;-60
2022/05/07 08:21:21;;;;;;;26.73;24.00;;;22.60;99.90;;;;;;5059975;28;20508;-59
2022/05/07 08:23:48;;;;;;;25.17;22.87;;;22.80;99.90;;;;;;5059938;28;20462;-60
2022/05/07 08:26:16;;;;;;;25.90;23.40;;;23.00;99.90;;;;;;5059906;28;20816;-60
2022/05/07 08:28:43;;;;;;;25.30;22.90;;;23.30;99.90;;;;;;5059424;28;20512;-60
2022/05/07 08:31:12;;;;;;;26.13;23.33;;;23.50;99.90;;;;;;5059826;28;20462;-60
2022/05/07 08:33:43;;;;;;;26.87;23.93;;;23.50;99.90;;;;;;5059619;28;20462;-60
2022/05/07 08:36:13;;;;;;;25.77;23.17;;;23.50;99.90;;;;;;5059568;28;20494;-60
2022/05/07 08:38:42;;;;;;;26.57;23.77;;;23.00;99.90;;;;;;5058843;28;20466;-60
2022/05/07 08:41:13;;;;;;;26.83;23.83;;;22.60;99.90;;;;;;5058777;28;20561;-60
2022/05/07 08:43:46;;;;;;;26.93;24.00;;;22.30;99.90;;;;;;5059671;28;20462;-60
2022/05/07 08:46:18;;;;;;;28.50;25.50;;;22.20;99.90;;;;;;5059451;28;20795;-59
2022/05/07 08:48:50;;;;;;;28.50;25.47;;;21.90;99.90;;;;;;5060314;28;20462;-60
2022/05/07 08:51:20;;;;;;;32.67;24.53;;;21.60;99.90;;;;;;5078773;28;20469;-60
2022/05/07 08:53:53;;;;;;;32.97;25.90;;;22.00;99.90;;;;;;5078925;28;20925;-60
2022/05/07 08:56:25;;;;;;;30.20;23.93;;;22.70;99.90;;;;;;5078965;28;20488;-60
2022/05/07 08:58:56;;;;;;;30.87;26.40;;;23.20;99.90;;;;;;5079438;28;20468;-62
2022/05/07 09:01:31;;;;;;;28.83;24.23;;;23.30;99.90;;;;;;5078455;28;20461;-62
2022/05/07 09:04:11;;;;;;;33.97;25.90;;;23.50;99.90;;;;;;5078539;28;20468;-61
2022/05/07 09:06:44;;;;;;;28.13;25.13;;;23.60;99.90;;;;;;5076818;28;20514;-61
2022/05/07 09:09:13;;;;;;;32.73;26.57;;;23.80;99.90;;;;;;5078581;28;20465;-61
2022/05/07 09:11:47;;;;;;;30.90;27.33;;;24.10;99.90;;;;;;5078432;28;20472;-61
2022/05/07 09:14:18;;;;;;;28.50;25.30;;;24.50;99.90;;;;;;5076147;28;20477;-61
2022/05/07 09:16:55;;;;;;;30.10;27.03;;;24.70;99.90;;;;;;5076656;28;20493;-62
2022/05/07 09:19:27;;;;;;;28.40;25.50;;;25.10;99.90;;;;;;5076942;28;20831;-60
2022/05/07 09:22:05;;;;;;;31.40;26.37;;;25.40;99.90;;;;;;5078720;28;20465;-61
2022/05/07 09:24:38;;;;;;;29.73;26.80;;;25.50;99.90;;;;;;5078333;28;20460;-62
2022/05/07 09:27:06;;;;;;;31.80;28.67;;;25.70;99.90;;;;;;5077058;28;20501;-63
2022/05/07 09:29:34;;;;;;;34.60;31.13;;;25.90;99.90;;;;;;5077245;28;20758;-63
2022/05/07 09:32:14;;;;;;;34.97;29.87;;;25.80;99.90;;;;;;5076390;28;20893;-61
2022/05/07 09:37:42;;;;;;;25.90;23.60;;;25.30;99.90;;;;;;5075771;28;20472;-61
2022/05/07 09:40:22;;;;;;;25.80;23.30;;;25.30;99.90;;;;;;5078581;28;20560;-62
2022/05/07 09:42:51;;;;;;;26.20;23.40;;;25.60;99.90;;;;;;5077966;28;20461;-61
2022/05/07 09:45:20;;;;;;;25.73;23.30;;;26.00;99.90;;;;;;5076603;28;20457;-60
2022/05/07 09:47:55;;;;;;;26.90;24.10;;;25.30;99.90;;;;;;5076494;28;20460;-61
2022/05/07 09:50:43;;;;;;;26.80;24.17;;;25.40;99.90;;;;;;5077416;28;20646;-60
2022/05/07 09:58:49;;;;;;;24.67;22.37;;;25.60;99.90;;;;;;5075818;28;20456;-61
2022/05/07 10:01:49;;;;;;;26.67;23.93;;;25.90;99.90;;;;;;5078083;28;20582;-62
2022/05/07 10:04:35;;;;;;;27.60;24.97;;;25.70;99.90;;;;;;5057445;28;20778;-61
2022/05/07 10:07:27;;;;;;;26.47;23.77;;;25.70;99.90;;;;;;5056158;28;20510;-61
2022/05/07 10:10:10;;;;;;;28.43;25.63;;;25.90;99.90;;;;;;5069963;28;20466;-60
2022/05/07 10:12:47;;;;;;;28.40;25.60;;;25.20;99.90;;;;;;5063246;28;20489;-61
2022/05/07 10:15:19;;;;;;;33.93;25.60;;;24.90;99.90;;;;;;5077431;28;20492;-61
2022/05/07 10:17:58;;;;;;;29.73;26.60;;;24.90;99.90;;;;;;5077181;28;20793;-61
2022/05/07 10:20:39;;;;;;;26.47;24.07;;;24.90;99.90;;;;;;5076984;28;20464;-62
2022/05/07 10:23:10;;;;;;;27.03;24.47;;;24.70;99.90;;;;;;5077662;28;20465;-62
2022/05/07 10:25:40;;;;;;;26.40;24.00;;;24.80;99.90;;;;;;5077868;28;20461;-61
2022/05/07 10:28:12;;;;;;;27.00;24.30;;;25.30;99.90;;;;;;5077030;28;20462;-62
2022/05/07 10:30:48;;;;;;;25.57;22.80;;;25.70;99.90;;;;;;5076595;28;20462;-61
2022/05/07 10:33:19;;;;;;;24.93;22.23;;;26.00;99.90;;;;;;5077254;28;20465;-61
2022/05/07 10:35:49;;;;;;;26.07;23.53;;;26.10;99.90;;;;;;5077231;28;20514;-61
2022/05/07 10:38:28;;;;;;;28.83;25.90;;;26.50;99.90;;;;;;5075239;28;20473;-62
2022/05/07 10:40:56;;;;;;;26.27;23.90;;;26.40;99.90;;;;;;5076055;28;20471;-61
2022/05/07 10:43:28;;;;;;;28.70;26.30;;;25.50;99.90;;;;;;5077132;28;20461;-61
2022/05/07 10:46:09;;;;;;;26.20;23.67;;;24.60;99.90;;;;;;5076780;28;20465;-62
2022/05/07 10:49:04;;;;;;;28.07;25.27;;;24.10;99.90;;;;;;5075097;28;20869;-62
2022/05/07 10:51:36;;;;;;;26.20;23.80;;;24.40;99.90;;;;;;5073871;28;20562;-61
2022/05/07 10:54:19;;;;;;;29.63;26.83;;;24.50;99.90;;;;;;5076461;28;20469;-61
2022/05/07 10:56:48;;;;;;;26.00;23.60;;;23.90;99.90;;;;;;5076441;28;20496;-61
2022/05/07 10:59:16;;;;;;;26.53;24.10;;;23.60;99.90;;;;;;5076755;28;20565;-62
2022/05/07 11:01:45;;;;;;;25.77;23.23;;;23.70;99.90;;;;;;5076286;28;20564;-61
2022/05/07 11:04:17;;;;;;;24.60;22.23;;;23.30;99.90;;;;;;5076162;28;20485;-61
2022/05/07 11:06:53;;;;;;;26.20;23.90;;;23.20;99.90;;;;;;5073767;28;20511;-61
2022/05/07 11:09:21;;;;;;;25.90;23.63;;;23.00;99.90;;;;;;5073089;28;20766;-61
2022/05/07 11:11:53;;;;;;;26.37;23.83;;;22.50;99.90;;;;;;5074178;28;20461;-61
2022/05/07 11:14:24;;;;;;;24.30;21.73;;;23.00;99.90;;;;;;5065417;28;20556;-61
2022/05/07 11:16:56;;;;;;;27.50;24.70;;;23.20;99.90;;;;;;5055119;28;20497;-60
2022/05/07 11:19:27;;;;;;;24.20;21.77;;;22.50;99.90;;;;;;5072336;28;20962;-60
2022/05/07 11:21:56;;;;;;;20.67;18.80;;;22.30;99.90;;;;;;5074655;28;20461;-61
2022/05/07 11:24:28;;;;;;;21.50;19.40;;;22.30;99.90;;;;;;5073534;28;20523;-61
2022/05/07 11:26:58;;;;;;;23.77;21.47;;;22.50;99.90;;;;;;5075000;28;20535;-61
2022/05/07 11:29:26;;;;;;;25.27;22.80;;;22.70;99.90;;;;;;5073737;28;20469;-60
2022/05/07 11:32:12;;;;;;;26.97;24.37;;;23.10;99.90;;;;;;5075738;28;20457;-61
2022/05/07 11:34:41;;;;;;;25.80;23.20;;;23.20;99.90;;;;;;5075092;28;20457;-61
2022/05/07 11:37:18;;;;;;;25.63;23.10;;;23.40;99.90;;;;;;5074407;28;20531;-61
2022/05/07 11:39:50;;;;;;;24.60;22.40;;;23.50;99.90;;;;;;5075600;28;20472;-61
2022/05/07 11:42:27;;;;;;;23.20;20.80;;;23.70;99.90;;;;;;5074199;28;20543;-61
2022/05/07 11:47:53;;;;;;;23.80;21.50;;;23.80;99.90;;;;;;5055043;28;20437;-61
2022/05/07 11:50:24;;;;;;;27.23;24.43;;;23.50;99.90;;;;;;5071173;28;20469;-60
2022/05/07 11:53:15;;;;;;;28.10;25.47;;;22.70;99.90;;;;;;5075688;28;20477;-61
2022/05/07 11:55:45;;;;;;;24.60;22.30;;;22.00;99.90;;;;;;5059265;28;20493;-61
2022/05/07 11:58:19;;;;;;;25.73;23.13;;;22.30;99.90;;;;;;5059576;28;20896;-61
2022/05/07 12:00:48;;;;;;;22.43;20.43;;;22.60;99.90;;;;;;5072167;28;20545;-61
2022/05/07 12:03:19;;;;;;;24.53;22.13;;;22.30;99.90;;;;;;5077097;28;20905;-61
2022/05/07 12:05:49;;;;;;;23.93;21.73;;;22.20;99.90;;;;;;5078354;28;20902;-61
2022/05/07 12:08:20;;;;;;;24.57;22.07;;;22.10;99.90;;;;;;5077653;28;20883;-60
2022/05/07 12:10:51;;;;;;;27.00;23.27;;;22.30;99.90;;;;;;5078274;28;20461;-61
2022/05/07 12:13:25;;;;;;;24.33;21.93;;;22.20;99.90;;;;;;5076674;28;20893;-61
2022/05/07 12:18:49;;;;;;;22.37;19.90;;;22.10;99.90;;;;;;4987006;28;20556;-61
2022/05/07 12:29:48;;;;;;;21.73;19.53;;;22.00;99.90;;;;;;5028552;28;20930;-61
2022/05/07 12:29:50;;;;;;;20.00;18.10;;;23.30;99.90;;;;;;5038215;28;20458;-61
2022/05/07 12:32:25;;;;;;;20.97;18.07;;;24.10;99.90;;;;;;5038821;28;20895;-62
2022/05/07 12:34:54;;;;;;;20.80;18.90;;;24.30;99.90;;;;;;5039877;28;20486;-62
2022/05/07 12:37:23;;;;;;;22.43;20.30;;;24.20;99.90;;;;;;5039259;28;20486;-61
2022/05/07 12:39:51;;;;;;;20.23;18.37;;;24.40;99.90;;;;;;5038930;28;20463;-62
2022/05/07 12:42:23;;;;;;;19.53;17.63;;;25.10;99.90;;;;;;5036744;28;20463;-62
2022/05/07 12:44:53;;;;;;;20.87;18.73;;;26.20;99.90;;;;;;5037745;28;20463;-62
2022/05/07 12:47:23;;;;;;;21.40;19.30;;;26.50;99.90;;;;;;5038729;28;20876;-62
2022/05/07 12:49:53;;;;;;;20.43;18.37;;;25.50;99.90;;;;;;5039017;28;20498;-62
2022/05/07 12:52:22;;;;;;;18.00;16.40;;;25.50;99.90;;;;;;5038056;28;20495;-62
2022/05/07 12:54:57;;;;;;;21.90;19.70;;;24.90;99.90;;;;;;5039520;28;20471;-61
2022/05/07 12:57:27;;;;;;;21.60;19.33;;;23.80;99.90;;;;;;5038682;28;20842;-61
2022/05/07 12:59:58;;;;;;;21.20;19.10;;;23.70;99.90;;;;;;5038579;28;20764;-61
2022/05/07 13:02:33;;;;;;;18.53;16.77;;;23.30;99.90;;;;;;5038791;28;20521;-61
2022/05/07 13:05:04;;;;;;;18.77;16.87;;;23.20;99.90;;;;;;5038496;28;20512;-61
2022/05/07 13:07:31;;;;;;;19.07;17.20;;;22.90;99.90;;;;;;5038253;28;20553;-61
2022/05/07 13:09:59;;;;;;;21.20;19.10;;;23.00;99.90;;;;;;5038819;28;20951;-61
2022/05/07 13:12:27;;;;;;;19.33;17.30;;;24.00;99.90;;;;;;5038698;28;20517;-61
2022/05/07 13:14:57;;;;;;;18.13;16.53;;;24.80;99.90;;;;;;5038530;28;20499;-61
2022/05/07 13:17:29;;;;;;;17.40;15.33;;;24.90;99.90;;;;;;5063061;28;20562;-62
2022/05/07 13:19:56;;;;;;;19.03;17.20;;;25.10;99.90;;;;;;5078268;28;20501;-61
2022/05/07 13:22:23;;;;;;;16.50;14.90;;;24.70;99.90;;;;;;5076940;28;20977;-61
2022/05/07 13:24:53;;;;;;;16.53;14.93;;;23.80;99.90;;;;;;5075824;28;20519;-61
2022/05/07 13:27:22;;;;;;;17.17;15.50;;;23.20;99.90;;;;;;5077522;28;20461;-61
2022/05/07 13:29:56;;;;;;;17.53;15.73;;;23.10;99.90;;;;;;5077762;28;20495;-60
2022/05/07 13:32:28;;;;;;;13.73;12.33;;;22.40;99.90;;;;;;5078603;28;20465;-61
2022/05/07 13:34:57;;;;;;;17.90;15.20;;;22.30;99.90;;;;;;5077627;28;20785;-61